Terminal Aerodrome Forecast
Issued by NWS

Home | Current Version | Previous Version | Text Only | Print | Product List | Glossary On
Versions: 1 2 3 4 5 6 7 8 9 10 11 12 13 14 15 16 17 18 19 20 21 22 23 24 25 26 27 28 29 30
000
FTUS41 KBOX 191129
TAFBAF
TAF
KBAF 191129Z 1912/2012 34006KT P6SM BKN040
     FM191800 03004KT P6SM BKN090
     FM192200 06005KT P6SM VCSH OVC035
     FM192300 06005KT 4SM -SN OVC035
     FM200000 06005KT 1SM -SN OVC020
     FM200300 04007KT 1/4SM +SN OVC010
     FM200900 04010G22KT 1/4SM +SNPL OVC015
     FM201100 03010G21KT 1/2SM +FZRAPL OVC015=

USA.gov is the U.S. government's official web portal to all federal, state and local government web resources and services.